Time;durP1;ratioP1;P1;durP2;ratioP2;P2;SDS_P1;SDS_P2;PMS_P1;PMS_P2;Temp;Humidity;BMP_temperature;BMP_pressure;BME280_temperature;BME280_humidity;BME280_pressure;Samples;Min_cycle;Max_cycle;Signal;HPM_P1;HPM_P2
2021/07/14 00:00:19;;;;;;;;;;;;;;;;;;2106084;28;45559;-71
2021/07/14 00:01:21;;;;;;;;;;;;;;;;;;2114573;28;45716;-71
2021/07/14 00:02:22;;;;;;;;;;;;;;;;;;2114296;28;45588;-71
2021/07/14 00:03:23;;;;;;;;;;;;;;;;;;2114581;28;47979;-73
2021/07/14 00:04:25;;;;;;;;;;;;;;;;;;2114819;28;45494;-73
2021/07/14 00:05:26;;;;;;;;;;;;;;;;;;2114768;28;46669;-70
2021/07/14 00:06:28;;;;;;;;;;;;;;;;;;2114404;28;45706;-70
2021/07/14 00:07:29;;;;;;;;;;;;;;;;;;2106154;28;45275;-69
2021/07/14 00:08:31;;;;;;;;;;;;;;;;;;2114377;28;47029;-69
2021/07/14 00:09:32;;;;;;;;;;;;;;;;;;2114332;28;45923;-69
2021/07/14 00:10:34;;;;;;;;;;;;;;;;;;2106196;28;44662;-69
2021/07/14 00:11:45;;;;;;;;;;;;;;;;;;2105886;28;45884;-69
2021/07/14 00:12:56;;;;;;;;;;;;;;;;;;2114008;28;44552;-69
2021/07/14 00:14:13;;;;;;;;;;;;;;;;;;2114410;28;45888;-70
2021/07/14 00:23:07;;;;;;;;;;;;;;;;;;2114966;27;45919;-70
2021/07/14 00:24:08;;;;;;;;;;;;;;;;;;2114312;28;45932;-70
2021/07/14 00:25:11;;;;;;;;;;;;;;;;;;2106008;28;47186;-69
2021/07/14 00:26:13;;;;;;;;;;;;;;;;;;2114288;28;45871;-69
2021/07/14 00:27:15;;;;;;;;;;;;;;;;;;2114043;28;47207;-69
2021/07/14 00:28:17;;;;;;;;;;;;;;;;;;2114323;28;45656;-69
2021/07/14 00:29:18;;;;;;;;;;;;;;;;;;2114356;28;45868;-69
2021/07/14 00:30:25;;;;;;;;;;;;;;;;;;2114049;28;44645;-69
2021/07/14 00:31:27;;;;;;;;;;;;;;;;;;2114388;28;46042;-69
2021/07/14 00:32:28;;;;;;;;;;;;;;;;;;2114416;28;46281;-69
2021/07/14 00:33:30;;;;;;;;;;;;;;;;;;2114237;28;45601;-69
2021/07/14 00:34:32;;;;;;;;;;;;;;;;;;2114120;28;46218;-69
2021/07/14 00:35:33;;;;;;;;;;;;;;;;;;2114287;28;45252;-69
2021/07/14 00:36:34;;;;;;;;;;;;;;;;;;2105810;28;45588;-69
2021/07/14 00:37:36;;;;;;;;;;;;;;;;;;2114156;28;46524;-69
2021/07/14 00:38:37;;;;;;;;;;;;;;;;;;2113923;28;45387;-69
2021/07/14 00:39:39;;;;;;;;;;;;;;;;;;2106029;28;45374;-69
2021/07/14 00:40:40;;;;;;;;;;;;;;;;;;2113998;28;45362;-72
2021/07/14 00:41:42;;;;;;;;;;;;;;;;;;2114307;28;45227;-72
2021/07/14 00:42:46;;;;;;;;;;;;;;;;;;2114845;27;44014;-72
2021/07/14 00:43:47;;;;;;;;;;;;;;;;;;2114444;28;45401;-72
2021/07/14 00:44:48;;;;;;;;;;;;;;;;;;2105864;28;46305;-73
2021/07/14 00:45:50;;;;;;;;;;;;;;;;;;2106095;28;46175;-73
2021/07/14 00:46:52;;;;;;;;;;;;;;;;;;2114273;28;46186;-73
2021/07/14 00:47:57;;;;;;;;;;;;;;;;;;2114035;28;46545;-73
2021/07/14 00:49:00;;;;;;;;;;;;;;;;;;2114271;28;45473;-72
2021/07/14 00:50:02;;;;;;;;;;;;;;;;;;2114964;27;45225;-72
2021/07/14 00:51:04;;;;;;;;;;;;;;;;;;2114974;27;45459;-72
2021/07/14 00:52:05;;;;;;;;;;;;;;;;;;2114191;28;45170;-73
2021/07/14 00:53:07;;;;;;;;;;;;;;;;;;2114263;28;46324;-72
2021/07/14 00:54:08;;;;;;;;;;;;;;;;;;2114535;28;46381;-73
2021/07/14 00:55:10;;;;;;;;;;;;;;;;;;2105877;28;45756;-72
2021/07/14 00:56:11;;;;;;;;;;;;;;;;;;2114202;28;46440;-72
2021/07/14 00:57:15;;;;;;;;;;;;;;;;;;2114611;27;45350;-73
2021/07/14 00:58:17;;;;;;;;;;;;;;;;;;2114911;27;46725;-72
2021/07/14 00:59:18;;;;;;;;;;;;;;;;;;2114624;27;45568;-72
2021/07/14 01:00:20;;;;;;;;;;;;;;;;;;2114303;28;45492;-71
2021/07/14 01:01:21;;;;;;;;;;;;;;;;;;2105626;28;45493;-71
2021/07/14 01:02:25;;;;;;;;;;;;;;;;;;2114079;28;44401;-71
2021/07/14 01:03:38;;;;;;;;;;;;;;;;;;2114682;27;44151;-71
2021/07/14 01:04:44;;;;;;;;;;;;;;;;;;2114207;28;45984;-71
2021/07/14 01:05:48;;;;;;;;;;;;;;;;;;2106434;28;46612;-72
2021/07/14 01:06:49;;;;;;;;;;;;;;;;;;2114229;28;44128;-71
2021/07/14 01:08:01;;;;;;;;;;;;;;;;;;2114793;27;46770;-72
2021/07/14 01:09:07;;;;;;;;;;;;;;;;;;2114708;27;46647;-71
2021/07/14 01:10:20;;;;;;;;;;;;;;;;;;2114207;28;46582;-72
2021/07/14 01:11:23;;;;;;;;;;;;;;;;;;2114285;28;45723;-71
2021/07/14 01:12:48;;;;;;;;;;;;;;;;;;2113899;28;47078;-71
2021/07/14 01:14:00;;;;;;;;;;;;;;;;;;2100898;28;44796;-72
2021/07/14 01:15:05;;;;;;;;;;;;;;;;;;2106286;28;46530;-72
2021/07/14 01:16:07;;;;;;;;;;;;;;;;;;2105375;28;45454;-71
2021/07/14 01:17:11;;;;;;;;;;;;;;;;;;2106109;28;44024;-72
2021/07/14 01:18:24;;;;;;;;;;;;;;;;;;2105423;28;45940;-71
2021/07/14 01:19:35;;;;;;;;;;;;;;;;;;2105599;28;47212;-72
2021/07/14 01:20:47;;;;;;;;;;;;;;;;;;2105701;28;47193;-73
2021/07/14 01:21:49;;;;;;;;;;;;;;;;;;2099003;28;44072;-73
2021/07/14 01:23:14;;;;;;;;;;;;;;;;;;2105827;28;46017;-74
2021/07/14 01:24:34;;;;;;;;;;;;;;;;;;2105590;28;46094;-73
2021/07/14 01:25:38;;;;;;;;;;;;;;;;;;2099951;28;47114;-73
2021/07/14 01:27:00;;;;;;;;;;;;;;;;;;2097676;28;44728;-73
2021/07/14 01:28:03;;;;;;;;;;;;;;;;;;2105406;28;45917;-72
2021/07/14 01:29:07;;;;;;;;;;;;;;;;;;2105643;28;47270;-72
2021/07/14 01:30:11;;;;;;;;;;;;;;;;;;2097542;28;47043;-72
2021/07/14 01:31:17;;;;;;;;;;;;;;;;;;2105618;28;47082;-72
2021/07/14 01:32:20;;;;;;;;;;;;;;;;;;2105247;28;46584;-71
2021/07/14 01:33:24;;;;;;;;;;;;;;;;;;2105560;28;47058;-72
2021/07/14 01:34:27;;;;;;;;;;;;;;;;;;2105317;28;45969;-71
2021/07/14 01:35:31;;;;;;;;;;;;;;;;;;2105558;28;45944;-71
2021/07/14 01:36:34;;;;;;;;;;;;;;;;;;2106020;28;45959;-73
2021/07/14 01:37:37;;;;;;;;;;;;;;;;;;2106116;28;45089;-73
2021/07/14 01:38:40;;;;;;;;;;;;;;;;;;2105431;28;45935;-73
2021/07/14 01:39:42;;;;;;;;;;;;;;;;;;2105531;28;47083;-73
2021/07/14 01:40:45;;;;;;;;;;;;;;;;;;2105727;28;47397;-73
2021/07/14 01:41:48;;;;;;;;;;;;;;;;;;2106653;28;45261;-73
2021/07/14 01:42:52;;;;;;;;;;;;;;;;;;2107979;28;45413;-73
2021/07/14 01:43:57;;;;;;;;;;;;;;;;;;2114037;28;44780;-73
2021/07/14 01:45:00;;;;;;;;;;;;;;;;;;2113966;28;45632;-73
2021/07/14 01:46:02;;;;;;;;;;;;;;;;;;2114061;28;43964;-73
2021/07/14 01:47:04;;;;;;;;;;;;;;;;;;2114512;27;45873;-73
2021/07/14 01:48:09;;;;;;;;;;;;;;;;;;2114034;27;46446;-73
2021/07/14 01:49:12;;;;;;;;;;;;;;;;;;2113957;28;45297;-73
2021/07/14 01:50:14;;;;;;;;;;;;;;;;;;2114039;28;44682;-73
2021/07/14 01:51:17;;;;;;;;;;;;;;;;;;2113980;28;46510;-73
2021/07/14 01:52:19;;;;;;;;;;;;;;;;;;2105789;28;43852;-72
2021/07/14 01:53:22;;;;;;;;;;;;;;;;;;2113621;28;45113;-72
2021/07/14 01:54:25;;;;;;;;;;;;;;;;;;2105645;28;46749;-72
2021/07/14 01:55:28;;;;;;;;;;;;;;;;;;2103852;28;46288;-72
2021/07/14 01:56:32;;;;;;;;;;;;;;;;;;2105707;28;42703;-73
2021/07/14 01:57:36;;;;;;;;;;;;;;;;;;2104749;28;45319;-72
2021/07/14 01:58:39;;;;;;;;;;;;;;;;;;2113241;28;45313;-72
2021/07/14 01:59:41;;;;;;;;;;;;;;;;;;2105704;28;46441;-72
2021/07/14 02:00:42;;;;;;;;;;;;;;;;;;2105306;28;46405;-72
2021/07/14 02:01:44;;;;;;;;;;;;;;;;;;2097216;28;45636;-73
2021/07/14 02:03:41;;;;;;;;;;;;;;;;;;2104690;28;45552;-73
2021/07/14 02:04:31;;;;;;;;;;;;;;;;;;2102542;28;43166;-72
2021/07/14 02:05:33;;;;;;;;;;;;;;;;;;2104828;28;45406;-72
2021/07/14 02:06:34;;;;;;;;;;;;;;;;;;2105169;28;45693;-73
2021/07/14 02:07:36;;;;;;;;;;;;;;;;;;2105209;28;43477;-72
2021/07/14 02:08:38;;;;;;;;;;;;;;;;;;2105370;28;45571;-72
2021/07/14 02:09:41;;;;;;;;;;;;;;;;;;2105611;28;46884;-73
2021/07/14 02:10:43;;;;;;;;;;;;;;;;;;2105352;28;45438;-72
2021/07/14 02:11:45;;;;;;;;;;;;;;;;;;2097057;28;45496;-73
2021/07/14 02:12:48;;;;;;;;;;;;;;;;;;2107775;28;45338;-73
2021/07/14 02:13:50;;;;;;;;;;;;;;;;;;2114269;27;46633;-73
2021/07/14 02:14:59;;;;;;;;;;;;;;;;;;2113803;28;46980;-72
2021/07/14 02:16:02;;;;;;;;;;;;;;;;;;2106346;28;44019;-72
2021/07/14 02:17:11;;;;;;;;;;;;;;;;;;2105635;28;45355;-72
2021/07/14 02:18:13;;;;;;;;;;;;;;;;;;2114754;27;45486;-72
2021/07/14 02:19:15;;;;;;;;;;;;;;;;;;2106835;28;46857;-70
2021/07/14 02:20:19;;;;;;;;;;;;;;;;;;2106590;28;46689;-70
2021/07/14 02:21:21;;;;;;;;;;;;;;;;;;2115077;28;46845;-70
2021/07/14 02:22:22;;;;;;;;;;;;;;;;;;2115267;27;45501;-70
2021/07/14 02:23:24;;;;;;;;;;;;;;;;;;2115819;27;44043;-70
2021/07/14 02:24:25;;;;;;;;;;;;;;;;;;2115699;27;45439;-70
2021/07/14 02:25:27;;;;;;;;;;;;;;;;;;2115618;28;46646;-71
2021/07/14 02:26:32;;;;;;;;;;;;;;;;;;2114999;28;45982;-70
2021/07/14 02:27:34;;;;;;;;;;;;;;;;;;2107106;28;46208;-70
2021/07/14 02:28:35;;;;;;;;;;;;;;;;;;2115070;28;44788;-71
2021/07/14 02:29:38;;;;;;;;;;;;;;;;;;2115215;28;47113;-72
2021/07/14 02:30:39;;;;;;;;;;;;;;;;;;2114983;28;46003;-72
2021/07/14 02:31:41;;;;;;;;;;;;;;;;;;2115845;27;44648;-72
2021/07/14 02:32:43;;;;;;;;;;;;;;;;;;2115172;27;47087;-72
2021/07/14 02:33:44;;;;;;;;;;;;;;;;;;2114758;28;45856;-72
2021/07/14 02:34:47;;;;;;;;;;;;;;;;;;2106855;28;44167;-73
2021/07/14 02:35:49;;;;;;;;;;;;;;;;;;2115247;28;46232;-73
2021/07/14 02:36:50;;;;;;;;;;;;;;;;;;2115865;27;45567;-72
2021/07/14 02:37:56;;;;;;;;;;;;;;;;;;2115676;27;45921;-72
2021/07/14 02:39:00;;;;;;;;;;;;;;;;;;2115307;28;47009;-73
2021/07/14 02:40:03;;;;;;;;;;;;;;;;;;2107220;28;47095;-72
2021/07/14 02:41:13;;;;;;;;;;;;;;;;;;2107013;28;45910;-72
2021/07/14 02:42:20;;;;;;;;;;;;;;;;;;2107992;28;47164;-72
2021/07/14 02:43:26;;;;;;;;;;;;;;;;;;2107784;28;45919;-72
2021/07/14 02:44:28;;;;;;;;;;;;;;;;;;2107380;28;44603;-72
2021/07/14 02:45:32;;;;;;;;;;;;;;;;;;2107018;28;47509;-72
2021/07/14 02:46:35;;;;;;;;;;;;;;;;;;2107349;28;45915;-72
2021/07/14 02:47:41;;;;;;;;;;;;;;;;;;2106721;28;45837;-72
2021/07/14 02:48:44;;;;;;;;;;;;;;;;;;2106986;28;47511;-71
2021/07/14 02:49:46;;;;;;;;;;;;;;;;;;2107187;28;45808;-71
2021/07/14 02:50:49;;;;;;;;;;;;;;;;;;2106689;28;46334;-71
2021/07/14 02:51:51;;;;;;;;;;;;;;;;;;2114707;28;45305;-71
2021/07/14 02:52:53;;;;;;;;;;;;;;;;;;2106301;28;45110;-71
2021/07/14 02:53:58;;;;;;;;;;;;;;;;;;2114682;28;45396;-71
2021/07/14 02:55:01;;;;;;;;;;;;;;;;;;2115284;27;45135;-71
2021/07/14 02:56:06;;;;;;;;;;;;;;;;;;2114378;27;45143;-71
2021/07/14 02:57:09;;;;;;;;;;;;;;;;;;2114845;28;45510;-71
2021/07/14 02:58:12;;;;;;;;;;;;;;;;;;2114624;28;44479;-71
2021/07/14 02:59:13;;;;;;;;;;;;;;;;;;2115595;27;45274;-71
2021/07/14 03:00:15;;;;;;;;;;;;;;;;;;2115355;27;45511;-71
2021/07/14 03:01:18;;;;;;;;;;;;;;;;;;2114951;28;45554;-70
2021/07/14 03:02:21;;;;;;;;;;;;;;;;;;2106485;28;45498;-71
2021/07/14 03:03:22;;;;;;;;;;;;;;;;;;2114746;28;46161;-71
2021/07/14 03:04:26;;;;;;;;;;;;;;;;;;2115540;27;46600;-71
2021/07/14 03:05:29;;;;;;;;;;;;;;;;;;2115906;27;44492;-71
2021/07/14 03:06:32;;;;;;;;;;;;;;;;;;2114793;28;45262;-71
2021/07/14 03:07:35;;;;;;;;;;;;;;;;;;2114734;28;46416;-71
2021/07/14 03:08:37;;;;;;;;;;;;;;;;;;2115550;27;45284;-71
2021/07/14 03:09:41;;;;;;;;;;;;;;;;;;2115302;27;46605;-71
2021/07/14 03:10:43;;;;;;;;;;;;;;;;;;2114597;28;46292;-72
2021/07/14 03:11:44;;;;;;;;;;;;;;;;;;2115388;28;45321;-72
2021/07/14 03:12:48;;;;;;;;;;;;;;;;;;2112143;28;46701;-72
2021/07/14 03:13:49;;;;;;;;;;;;;;;;;;2106409;28;45470;-71
2021/07/14 03:14:55;;;;;;;;;;;;;;;;;;2106121;28;46100;-72
2021/07/14 03:15:57;;;;;;;;;;;;;;;;;;2098643;28;45778;-71
2021/07/14 03:16:59;;;;;;;;;;;;;;;;;;2105923;28;44477;-71
2021/07/14 03:18:01;;;;;;;;;;;;;;;;;;2106132;28;44505;-72
2021/07/14 03:19:03;;;;;;;;;;;;;;;;;;2106272;28;46856;-72
2021/07/14 03:20:08;;;;;;;;;;;;;;;;;;2106426;28;44059;-72
2021/07/14 03:21:09;;;;;;;;;;;;;;;;;;2106935;28;45376;-72
2021/07/14 03:22:11;;;;;;;;;;;;;;;;;;2106613;28;45828;-71
2021/07/14 03:23:14;;;;;;;;;;;;;;;;;;2106432;28;45476;-71
2021/07/14 03:24:16;;;;;;;;;;;;;;;;;;2106396;28;45387;-72
2021/07/14 03:25:18;;;;;;;;;;;;;;;;;;2106392;28;45431;-72
2021/07/14 03:26:20;;;;;;;;;;;;;;;;;;2106266;28;44496;-71
2021/07/14 03:27:21;;;;;;;;;;;;;;;;;;2106583;28;45453;-72
2021/07/14 03:28:25;;;;;;;;;;;;;;;;;;2106397;28;45600;-72
2021/07/14 03:29:26;;;;;;;;;;;;;;;;;;2104839;28;46544;-72
2021/07/14 03:30:28;;;;;;;;;;;;;;;;;;2106141;28;47613;-72
2021/07/14 03:31:33;;;;;;;;;;;;;;;;;;2106507;28;44175;-72
2021/07/14 03:32:37;;;;;;;;;;;;;;;;;;2106180;28;44020;-71
2021/07/14 03:33:39;;;;;;;;;;;;;;;;;;2106113;28;45510;-71
2021/07/14 03:34:40;;;;;;;;;;;;;;;;;;2106734;28;46965;-72
2021/07/14 03:35:43;;;;;;;;;;;;;;;;;;2106644;28;43879;-72
2021/07/14 03:36:45;;;;;;;;;;;;;;;;;;2106219;28;45918;-72
2021/07/14 03:37:50;;;;;;;;;;;;;;;;;;2106189;28;46316;-72
2021/07/14 03:38:53;;;;;;;;;;;;;;;;;;2106845;28;47599;-72
2021/07/14 03:39:54;;;;;;;;;;;;;;;;;;2106174;28;46055;-73
2021/07/14 03:40:57;;;;;;;;;;;;;;;;;;2105834;28;45955;-73
2021/07/14 03:41:58;;;;;;;;;;;;;;;;;;2106215;28;46920;-73
2021/07/14 03:43:00;;;;;;;;;;;;;;;;;;2106267;28;45906;-72
2021/07/14 03:44:01;;;;;;;;;;;;;;;;;;2097959;28;46988;-72
2021/07/14 03:45:04;;;;;;;;;;;;;;;;;;2106265;28;46190;-71
2021/07/14 03:46:07;;;;;;;;;;;;;;;;;;2105968;28;45323;-71
2021/07/14 03:47:09;;;;;;;;;;;;;;;;;;2106325;28;45959;-72
2021/07/14 03:48:16;;;;;;;;;;;;;;;;;;2105626;28;44722;-72
2021/07/14 03:49:17;;;;;;;;;;;;;;;;;;2106233;28;46004;-71
2021/07/14 03:50:20;;;;;;;;;;;;;;;;;;2106067;28;45170;-71
2021/07/14 03:51:22;;;;;;;;;;;;;;;;;;2106747;28;45860;-71
2021/07/14 03:52:25;;;;;;;;;;;;;;;;;;2105740;28;46289;-71
2021/07/14 03:53:27;;;;;;;;;;;;;;;;;;2105940;28;46142;-71
2021/07/14 03:54:31;;;;;;;;;;;;;;;;;;2105891;28;44029;-71
2021/07/14 03:55:33;;;;;;;;;;;;;;;;;;2105771;28;45922;-72
2021/07/14 03:56:34;;;;;;;;;;;;;;;;;;2107911;28;45892;-71
2021/07/14 03:57:37;;;;;;;;;;;;;;;;;;2114294;28;46372;-71
2021/07/14 03:58:38;;;;;;;;;;;;;;;;;;2114729;28;43915;-71
2021/07/14 03:59:40;;;;;;;;;;;;;;;;;;2114669;28;45504;-71
2021/07/14 04:00:42;;;;;;;;;;;;;;;;;;2114449;28;44061;-71
2021/07/14 04:01:44;;;;;;;;;;;;;;;;;;2114605;28;45201;-72
2021/07/14 04:02:46;;;;;;;;;;;;;;;;;;2113959;28;44838;-71
2021/07/14 04:03:48;;;;;;;;;;;;;;;;;;2114569;28;46712;-72
2021/07/14 04:04:50;;;;;;;;;;;;;;;;;;2114356;28;46418;-71
2021/07/14 04:06:02;;;;;;;;;;;;;;;;;;2114590;28;45309;-71
2021/07/14 04:07:13;;;;;;;;;;;;;;;;;;2114394;28;45516;-71
2021/07/14 04:08:17;;;;;;;;;;;;;;;;;;2115010;27;45220;-72
2021/07/14 04:09:19;;;;;;;;;;;;;;;;;;2114523;28;45513;-71
2021/07/14 04:10:21;;;;;;;;;;;;;;;;;;2114027;28;45259;-71
2021/07/14 04:11:23;;;;;;;;;;;;;;;;;;2106292;28;46443;-71
2021/07/14 04:12:24;;;;;;;;;;;;;;;;;;2105899;28;46699;-70
2021/07/14 04:13:25;;;;;;;;;;;;;;;;;;2106134;28;45526;-70
2021/07/14 04:14:28;;;;;;;;;;;;;;;;;;2097444;28;45189;-70
2021/07/14 04:15:29;;;;;;;;;;;;;;;;;;2105725;28;45517;-71
2021/07/14 04:16:31;;;;;;;;;;;;;;;;;;2105730;28;44525;-71
2021/07/14 04:17:32;;;;;;;;;;;;;;;;;;2105593;28;46723;-70
2021/07/14 04:18:34;;;;;;;;;;;;;;;;;;2106247;28;46513;-70
2021/07/14 04:19:36;;;;;;;;;;;;;;;;;;2105991;28;45465;-70
2021/07/14 04:20:37;;;;;;;;;;;;;;;;;;2105924;28;45419;-71
2021/07/14 04:21:39;;;;;;;;;;;;;;;;;;2105958;28;46529;-70
2021/07/14 04:22:41;;;;;;;;;;;;;;;;;;2105727;28;45507;-71
2021/07/14 04:23:42;;;;;;;;;;;;;;;;;;2105822;28;46548;-71
2021/07/14 04:24:43;;;;;;;;;;;;;;;;;;2105672;28;44395;-71
2021/07/14 04:25:45;;;;;;;;;;;;;;;;;;2105944;28;43951;-71
2021/07/14 04:26:47;;;;;;;;;;;;;;;;;;2106513;28;45542;-71
2021/07/14 04:27:49;;;;;;;;;;;;;;;;;;2106358;28;46960;-70
2021/07/14 04:28:52;;;;;;;;;;;;;;;;;;2106514;28;43473;-71
2021/07/14 04:29:53;;;;;;;;;;;;;;;;;;2105893;28;44906;-71
2021/07/14 04:30:55;;;;;;;;;;;;;;;;;;2105924;28;45766;-72
2021/07/14 04:31:56;;;;;;;;;;;;;;;;;;2106374;28;44217;-72
2021/07/14 04:32:58;;;;;;;;;;;;;;;;;;2105618;28;46744;-72
2021/07/14 04:33:59;;;;;;;;;;;;;;;;;;2097160;28;44221;-71
2021/07/14 04:35:04;;;;;;;;;;;;;;;;;;2105783;28;45526;-71
2021/07/14 04:36:05;;;;;;;;;;;;;;;;;;2105688;28;45464;-72
2021/07/14 04:37:07;;;;;;;;;;;;;;;;;;2106207;28;45244;-71
2021/07/14 04:38:08;;;;;;;;;;;;;;;;;;2105911;28;42427;-72
2021/07/14 04:39:10;;;;;;;;;;;;;;;;;;2105998;28;46923;-71
2021/07/14 04:40:12;;;;;;;;;;;;;;;;;;2115620;28;45747;-72
2021/07/14 04:41:13;;;;;;;;;;;;;;;;;;2116280;28;44821;-72
2021/07/14 04:42:14;;;;;;;;;;;;;;;;;;2116275;28;45928;-73
2021/07/14 04:43:16;;;;;;;;;;;;;;;;;;2113109;28;45986;-71
2021/07/14 04:44:29;;;;;;;;;;;;;;;;;;2106096;28;44438;-71
2021/07/14 04:45:31;;;;;;;;;;;;;;;;;;2106364;28;44448;-71
2021/07/14 04:46:33;;;;;;;;;;;;;;;;;;2105638;28;45890;-70
2021/07/14 04:47:36;;;;;;;;;;;;;;;;;;2105295;28;46210;-70
2021/07/14 04:48:37;;;;;;;;;;;;;;;;;;2105595;28;45947;-71
2021/07/14 04:49:39;;;;;;;;;;;;;;;;;;2106013;28;46897;-71
2021/07/14 04:50:40;;;;;;;;;;;;;;;;;;2097544;28;45965;-71
2021/07/14 04:51:41;;;;;;;;;;;;;;;;;;2097656;28;46143;-71
2021/07/14 04:52:43;;;;;;;;;;;;;;;;;;2105510;28;44394;-72
2021/07/14 04:53:44;;;;;;;;;;;;;;;;;;2105723;28;46037;-72
2021/07/14 04:54:45;;;;;;;;;;;;;;;;;;2105210;28;46229;-72
2021/07/14 04:55:47;;;;;;;;;;;;;;;;;;2105814;28;47022;-71
2021/07/14 04:56:50;;;;;;;;;;;;;;;;;;2096832;28;46302;-72
2021/07/14 04:57:51;;;;;;;;;;;;;;;;;;2110947;28;44654;-72
2021/07/14 04:58:53;;;;;;;;;;;;;;;;;;2113745;28;47068;-70
2021/07/14 04:59:54;;;;;;;;;;;;;;;;;;2114109;28;46984;-72
2021/07/14 05:00:58;;;;;;;;;;;;;;;;;;2114060;28;45485;-70
2021/07/14 05:02:00;;;;;;;;;;;;;;;;;;2114031;28;45867;-71
2021/07/14 05:03:02;;;;;;;;;;;;;;;;;;2114416;28;46136;-72
2021/07/14 05:04:03;;;;;;;;;;;;;;;;;;2114610;28;43579;-71
2021/07/14 05:05:05;;;;;;;;;;;;;;;;;;2114157;28;45492;-69
2021/07/14 05:06:06;;;;;;;;;;;;;;;;;;2114253;28;44966;-69
2021/07/14 05:07:08;;;;;;;;;;;;;;;;;;2105683;28;46739;-72
2021/07/14 05:08:09;;;;;;;;;;;;;;;;;;2105652;28;45240;-72
2021/07/14 05:09:10;;;;;;;;;;;;;;;;;;2113714;28;45030;-72
2021/07/14 05:10:12;;;;;;;;;;;;;;;;;;2114066;28;46258;-72
2021/07/14 05:11:14;;;;;;;;;;;;;;;;;;2114126;28;43326;-71
2021/07/14 05:12:16;;;;;;;;;;;;;;;;;;2114642;27;46322;-70
2021/07/14 05:13:17;;;;;;;;;;;;;;;;;;2107850;27;43807;-70
2021/07/14 05:14:21;;;;;;;;;;;;;;;;;;2105629;28;46472;-69
2021/07/14 05:15:23;;;;;;;;;;;;;;;;;;2105250;28;45198;-69
2021/07/14 05:16:24;;;;;;;;;;;;;;;;;;2105586;28;45559;-71
2021/07/14 05:17:26;;;;;;;;;;;;;;;;;;2105080;28;46705;-71
2021/07/14 05:18:27;;;;;;;;;;;;;;;;;;2105674;28;45488;-71
2021/07/14 05:19:28;;;;;;;;;;;;;;;;;;2105296;28;45357;-71
2021/07/14 05:20:30;;;;;;;;;;;;;;;;;;2105765;28;43722;-72
2021/07/14 05:21:32;;;;;;;;;;;;;;;;;;2105132;28;46532;-70
2021/07/14 05:22:33;;;;;;;;;;;;;;;;;;2105403;28;44188;-68
2021/07/14 05:23:35;;;;;;;;;;;;;;;;;;2105287;28;45313;-68
2021/07/14 05:24:36;;;;;;;;;;;;;;;;;;2105686;28;45602;-69
2021/07/14 05:25:38;;;;;;;;;;;;;;;;;;2106123;28;46671;-68
2021/07/14 05:26:39;;;;;;;;;;;;;;;;;;2105629;28;45342;-68
2021/07/14 05:27:40;;;;;;;;;;;;;;;;;;2097017;28;46909;-69
2021/07/14 05:28:42;;;;;;;;;;;;;;;;;;2097260;28;46710;-69
2021/07/14 05:29:43;;;;;;;;;;;;;;;;;;2105425;28;45322;-69
2021/07/14 05:30:45;;;;;;;;;;;;;;;;;;2105662;28;45505;-69
2021/07/14 05:31:47;;;;;;;;;;;;;;;;;;2096977;28;45968;-69
2021/07/14 05:32:48;;;;;;;;;;;;;;;;;;2105524;28;45452;-70
2021/07/14 05:33:50;;;;;;;;;;;;;;;;;;2105205;28;45493;-69
2021/07/14 05:34:54;;;;;;;;;;;;;;;;;;2105383;28;45531;-69
2021/07/14 05:35:57;;;;;;;;;;;;;;;;;;2105287;28;45308;-69
2021/07/14 05:36:59;;;;;;;;;;;;;;;;;;2097311;28;46603;-69
2021/07/14 05:38:01;;;;;;;;;;;;;;;;;;2105288;28;45374;-68
2021/07/14 05:39:02;;;;;;;;;;;;;;;;;;2097378;28;43756;-68
2021/07/14 05:40:04;;;;;;;;;;;;;;;;;;2104858;28;46429;-68
2021/07/14 05:41:07;;;;;;;;;;;;;;;;;;2106050;28;46633;-68
2021/07/14 05:42:08;;;;;;;;;;;;;;;;;;2105145;28;45523;-69
2021/07/14 05:43:10;;;;;;;;;;;;;;;;;;2105315;28;46443;-69
2021/07/14 05:44:11;;;;;;;;;;;;;;;;;;2104907;28;44252;-69
2021/07/14 05:45:13;;;;;;;;;;;;;;;;;;2105051;28;46661;-69
2021/07/14 05:46:14;;;;;;;;;;;;;;;;;;2104937;28;45423;-70
2021/07/14 05:47:16;;;;;;;;;;;;;;;;;;2105091;28;45821;-69
2021/07/14 05:48:17;;;;;;;;;;;;;;;;;;2105725;28;45734;-70
2021/07/14 05:49:22;;;;;;;;;;;;;;;;;;2106068;28;46959;-70
2021/07/14 05:50:24;;;;;;;;;;;;;;;;;;2105318;28;47015;-69
2021/07/14 05:51:25;;;;;;;;;;;;;;;;;;2105498;28;46024;-70
2021/07/14 05:52:27;;;;;;;;;;;;;;;;;;2104052;28;44873;-70
2021/07/14 05:53:28;;;;;;;;;;;;;;;;;;2096930;28;46874;-70
2021/07/14 05:54:29;;;;;;;;;;;;;;;;;;2105572;28;44220;-69
2021/07/14 05:55:31;;;;;;;;;;;;;;;;;;2105328;28;42195;-69
2021/07/14 05:56:33;;;;;;;;;;;;;;;;;;2105336;28;47008;-69
2021/07/14 05:57:34;;;;;;;;;;;;;;;;;;2112867;28;47315;-69
2021/07/14 05:58:36;;;;;;;;;;;;;;;;;;2113496;28;47382;-69
2021/07/14 05:59:37;;;;;;;;;;;;;;;;;;2113684;28;45898;-69
2021/07/14 06:00:39;;;;;;;;;;;;;;;;;;2114431;27;47191;-70
2021/07/14 06:01:40;;;;;;;;;;;;;;;;;;2113984;27;47205;-70
2021/07/14 06:02:41;;;;;;;;;;;;;;;;;;2113615;28;47343;-71
2021/07/14 06:03:43;;;;;;;;;;;;;;;;;;2113479;28;45981;-71
2021/07/14 06:04:44;;;;;;;;;;;;;;;;;;2113740;28;44521;-71
2021/07/14 06:05:46;;;;;;;;;;;;;;;;;;2113353;28;47356;-71
2021/07/14 06:06:47;;;;;;;;;;;;;;;;;;2114141;27;44724;-71
2021/07/14 06:07:49;;;;;;;;;;;;;;;;;;2113381;28;47313;-70
2021/07/14 06:08:51;;;;;;;;;;;;;;;;;;2113620;28;46982;-70
2021/07/14 06:09:52;;;;;;;;;;;;;;;;;;2114104;27;44057;-70
2021/07/14 06:10:53;;;;;;;;;;;;;;;;;;2113885;27;45363;-71
2021/07/14 06:11:55;;;;;;;;;;;;;;;;;;2113475;28;46871;-73
2021/07/14 06:12:56;;;;;;;;;;;;;;;;;;2101068;28;45285;-73
2021/07/14 06:13:58;;;;;;;;;;;;;;;;;;2105212;28;43695;-73
2021/07/14 06:14:59;;;;;;;;;;;;;;;;;;2105546;28;45278;-73
2021/07/14 06:16:01;;;;;;;;;;;;;;;;;;2104782;28;45356;-73
2021/07/14 06:17:05;;;;;;;;;;;;;;;;;;2105263;28;45584;-73
2021/07/14 06:18:06;;;;;;;;;;;;;;;;;;2104762;28;45439;-73
2021/07/14 06:19:08;;;;;;;;;;;;;;;;;;2105373;28;43609;-73
2021/07/14 06:20:10;;;;;;;;;;;;;;;;;;2096895;28;43466;-73
2021/07/14 06:21:11;;;;;;;;;;;;;;;;;;2105365;28;45164;-74
2021/07/14 06:22:13;;;;;;;;;;;;;;;;;;2096376;28;44498;-73
2021/07/14 06:23:14;;;;;;;;;;;;;;;;;;2104977;28;45316;-73
2021/07/14 06:24:15;;;;;;;;;;;;;;;;;;2096548;28;46403;-73
2021/07/14 06:25:17;;;;;;;;;;;;;;;;;;2105117;28;45268;-73
2021/07/14 06:26:19;;;;;;;;;;;;;;;;;;2105704;28;45317;-73
2021/07/14 06:27:21;;;;;;;;;;;;;;;;;;2105074;28;45474;-73
2021/07/14 06:28:22;;;;;;;;;;;;;;;;;;2105065;28;46688;-73
2021/07/14 06:29:24;;;;;;;;;;;;;;;;;;2105092;28;46443;-74
2021/07/14 06:30:25;;;;;;;;;;;;;;;;;;2096979;28;45620;-73
2021/07/14 06:31:27;;;;;;;;;;;;;;;;;;2102334;28;45502;-72
2021/07/14 06:32:28;;;;;;;;;;;;;;;;;;2113175;27;47085;-70
2021/07/14 06:33:31;;;;;;;;;;;;;;;;;;2105358;28;45180;-72
2021/07/14 06:34:33;;;;;;;;;;;;;;;;;;2105012;28;45720;-73
2021/07/14 06:35:34;;;;;;;;;;;;;;;;;;2111227;27;46997;-73
2021/07/14 06:36:36;;;;;;;;;;;;;;;;;;2110319;27;46779;-72
2021/07/14 06:37:38;;;;;;;;;;;;;;;;;;2113373;27;45778;-72
2021/07/14 06:38:39;;;;;;;;;;;;;;;;;;2112928;28;45328;-72
2021/07/14 06:39:41;;;;;;;;;;;;;;;;;;2105244;28;45890;-72
2021/07/14 06:40:42;;;;;;;;;;;;;;;;;;2104695;28;45417;-73
2021/07/14 06:41:44;;;;;;;;;;;;;;;;;;2113614;28;45460;-73
2021/07/14 06:42:45;;;;;;;;;;;;;;;;;;2110765;28;45402;-70
2021/07/14 06:43:49;;;;;;;;;;;;;;;;;;2105126;28;45652;-73
2021/07/14 06:44:51;;;;;;;;;;;;;;;;;;2105207;28;46914;-73
2021/07/14 06:45:52;;;;;;;;;;;;;;;;;;2097110;28;44814;-72
2021/07/14 06:46:53;;;;;;;;;;;;;;;;;;2104840;28;46511;-74
2021/07/14 06:47:55;;;;;;;;;;;;;;;;;;2105113;28;45744;-71
2021/07/14 06:48:58;;;;;;;;;;;;;;;;;;2105173;28;46687;-70
2021/07/14 06:49:59;;;;;;;;;;;;;;;;;;2105330;28;45032;-71
2021/07/14 06:51:01;;;;;;;;;;;;;;;;;;2105015;28;46635;-73
2021/07/14 06:52:02;;;;;;;;;;;;;;;;;;2105324;28;46532;-70
2021/07/14 06:53:04;;;;;;;;;;;;;;;;;;2105201;28;45850;-69
2021/07/14 06:54:05;;;;;;;;;;;;;;;;;;2105064;28;47074;-75
2021/07/14 06:55:07;;;;;;;;;;;;;;;;;;2104770;28;46146;-74
2021/07/14 06:56:09;;;;;;;;;;;;;;;;;;2105695;28;44635;-73
2021/07/14 06:57:11;;;;;;;;;;;;;;;;;;2105130;28;45954;-73
2021/07/14 06:58:12;;;;;;;;;;;;;;;;;;2105072;28;47363;-72
2021/07/14 06:59:14;;;;;;;;;;;;;;;;;;2104719;28;46098;-74
2021/07/14 07:00:15;;;;;;;;;;;;;;;;;;2105116;28;47064;-76
2021/07/14 07:01:17;;;;;;;;;;;;;;;;;;2105746;28;44550;-76
2021/07/14 07:02:18;;;;;;;;;;;;;;;;;;2113449;28;45521;-75
2021/07/14 07:03:20;;;;;;;;;;;;;;;;;;2113337;27;45878;-75
2021/07/14 07:04:21;;;;;;;;;;;;;;;;;;2115479;28;44148;-75
2021/07/14 07:05:23;;;;;;;;;;;;;;;;;;2115403;28;45171;-76
2021/07/14 07:06:25;;;;;;;;;;;;;;;;;;2115131;28;45843;-75
2021/07/14 07:07:26;;;;;;;;;;;;;;;;;;2115450;27;47788;-75
2021/07/14 07:08:27;;;;;;;;;;;;;;;;;;2115045;28;47442;-74
2021/07/14 07:09:29;;;;;;;;;;;;;;;;;;2106614;28;45884;-75
2021/07/14 07:10:30;;;;;;;;;;;;;;;;;;2106666;28;46434;-73
2021/07/14 07:11:34;;;;;;;;;;;;;;;;;;2106335;28;45817;-73
2021/07/14 07:12:36;;;;;;;;;;;;;;;;;;2114918;28;44608;-74
2021/07/14 07:13:37;;;;;;;;;;;;;;;;;;2114856;28;44117;-74
2021/07/14 07:14:40;;;;;;;;;;;;;;;;;;2115239;28;47346;-74
2021/07/14 07:15:43;;;;;;;;;;;;;;;;;;2106569;28;47129;-74
2021/07/14 07:16:44;;;;;;;;;;;;;;;;;;2115021;28;45665;-72